Time;durP1;ratioP1;P1;durP2;ratioP2;P2;SDS_P1;SDS_P2;PMS_P1;PMS_P2;Temp;Humidity;BMP_temperature;BMP_pressure;BME280_temperature;BME280_humidity;BME280_pressure;Samples;Min_cycle;Max_cycle;Signal;HPM_P1;HPM_P2
2022/01/01 00:09:51;;;;;;;4.22;2.60;;;;;;;10.57;73.77;98246.56;12745253;23;19916;-79
2022/01/01 00:15:12;;;;;;;3.70;2.63;;;;;;;10.67;73.87;98243.81;12845069;23;20055;-79
2022/01/01 00:20:33;;;;;;;4.43;2.50;;;;;;;10.80;73.83;98244.13;12803183;23;20017;-78
2022/01/01 00:25:54;;;;;;;4.90;2.30;;;;;;;10.92;73.59;98257.53;12803424;23;20016;-79
2022/01/01 00:31:18;;;;;;;3.42;1.90;;;;;;;10.98;73.42;98250.31;12844329;23;20075;-79
2022/01/01 00:36:40;;;;;;;5.20;1.98;;;;;;;11.05;73.13;98243.88;12822207;23;20022;-79
2022/01/01 00:42:00;;;;;;;3.63;1.73;;;;;;;11.07;73.17;98246.81;12818714;23;20036;-78
2022/01/01 00:47:21;;;;;;;3.42;1.90;;;;;;;11.11;72.95;98241.53;12842511;23;20016;-78
2022/01/01 00:52:44;;;;;;;3.97;2.38;;;;;;;11.13;72.88;98250.06;12822528;23;20019;-78
2022/01/01 00:58:05;;;;;;;3.90;2.10;;;;;;;11.16;72.91;98260.03;12823180;23;20020;-78
2022/01/01 01:03:26;;;;;;;4.63;1.95;;;;;;;11.20;73.04;98265.22;12842229;23;20047;-78
2022/01/01 01:08:51;;;;;;;3.88;1.80;;;;;;;11.23;72.85;98269.63;12760537;23;20027;-78
2022/01/01 01:14:20;;;;;;;3.28;1.83;;;;;;;11.25;72.59;98277.41;12761212;23;20025;-78
2022/01/01 01:19:41;;;;;;;3.65;1.80;;;;;;;11.25;72.51;98283.00;12803189;23;20139;-78
2022/01/01 01:25:02;;;;;;;2.22;1.35;;;;;;;11.26;72.68;98284.47;12800871;23;20064;-78
2022/01/01 01:30:23;;;;;;;5.80;2.28;;;;;;;11.26;72.25;98292.84;12759505;23;20088;-78
2022/01/01 01:35:43;;;;;;;3.45;1.73;;;;;;;11.27;72.27;98291.53;12760445;23;20072;-78
2022/01/01 01:41:05;;;;;;;4.30;2.30;;;;;;;11.27;72.34;98289.47;12779715;23;20306;-78
2022/01/01 01:46:26;;;;;;;4.10;1.73;;;;;;;11.29;72.37;98300.03;12739724;23;20021;-78
2022/01/01 01:51:47;;;;;;;2.30;1.83;;;;;;;11.29;72.29;98294.47;12781192;23;20024;-79
2022/01/01 01:57:08;;;;;;;3.10;2.10;;;;;;;11.30;72.20;98313.47;12759648;23;20028;-78
2022/01/01 02:02:29;;;;;;;2.80;1.65;;;;;;;11.32;72.22;98302.41;12779133;23;20020;-79
2022/01/01 02:07:50;;;;;;;4.32;2.13;;;;;;;11.31;72.10;98303.75;12740721;23;20024;-78
2022/01/01 02:13:17;;;;;;;4.28;2.13;;;;;;;11.31;72.15;98317.00;12780330;23;20023;-78
2022/01/01 02:18:40;;;;;;;3.42;1.90;;;;;;;11.30;72.02;98312.72;12740182;23;20070;-79
2022/01/01 02:24:02;;;;;;;3.25;2.00;;;;;;;11.31;72.09;98317.00;12779583;23;20013;-78
2022/01/01 02:29:22;;;;;;;4.57;2.22;;;;;;;11.31;71.83;98314.94;12758850;23;20052;-78
2022/01/01 02:34:43;;;;;;;3.90;2.30;;;;;;;11.30;71.87;98321.09;12799725;23;20024;-79
2022/01/01 02:40:04;;;;;;;2.92;1.88;;;;;;;11.31;71.73;98330.97;12758530;23;20017;-78
2022/01/01 02:45:28;;;;;;;3.45;1.85;;;;;;;11.33;71.80;98342.28;12799143;23;20028;-78
2022/01/01 02:50:52;;;;;;;4.07;1.98;;;;;;;11.29;71.85;98344.75;12759299;23;20063;-78
2022/01/01 02:56:13;;;;;;;3.75;1.60;;;;;;;11.29;71.83;98353.16;12758538;23;20021;-78
2022/01/01 03:01:33;;;;;;;2.38;1.65;;;;;;;11.32;71.87;98355.53;12738245;23;20040;-78
2022/01/01 03:06:55;;;;;;;3.83;1.92;;;;;;;11.30;71.64;98365.81;12784918;23;20072;-78
2022/01/01 03:12:16;;;;;;;3.30;1.60;;;;;;;11.29;71.67;98367.88;12763118;23;20459;-78
2022/01/01 03:17:37;;;;;;;4.18;1.70;;;;;;;11.29;71.61;98375.50;12778908;23;20451;-79
2022/01/01 03:22:58;;;;;;;3.00;1.50;;;;;;;11.30;71.76;98368.63;12778395;23;20021;-78
2022/01/01 03:28:19;;;;;;;3.15;1.80;;;;;;;11.29;71.48;98367.13;12778575;23;20013;-78
2022/01/01 03:33:39;;;;;;;2.75;1.70;;;;;;;11.29;71.57;98383.88;12758180;23;20444;-78
2022/01/01 03:39:00;;;;;;;2.83;1.45;;;;;;;11.25;71.37;98373.16;12780137;23;20447;-78
2022/01/01 03:44:21;;;;;;;3.08;1.52;;;;;;;11.26;71.50;98376.69;12782346;23;20024;-78
2022/01/01 03:49:42;;;;;;;3.45;1.65;;;;;;;11.28;71.61;98374.03;12782561;23;20013;-79
2022/01/01 03:55:04;;;;;;;3.38;1.42;;;;;;;11.27;71.53;98392.88;12802695;23;20024;-78
2022/01/01 04:00:25;;;;;;;3.17;1.50;;;;;;;11.23;71.38;98392.56;12781520;23;20040;-78
2022/01/01 04:05:46;;;;;;;2.25;1.38;;;;;;;11.24;71.65;98396.84;12793279;23;20021;-78
2022/01/01 04:11:06;;;;;;;3.40;1.42;;;;;;;11.23;71.50;98403.00;12762386;23;20056;-79
2022/01/01 04:16:27;;;;;;;2.63;1.23;;;;;;;11.23;71.29;98408.59;12760968;23;20447;-78
2022/01/01 04:21:48;;;;;;;2.10;1.33;;;;;;;11.18;71.35;98402.69;12782158;23;20023;-78
2022/01/01 04:27:09;;;;;;;2.63;1.20;;;;;;;11.19;71.47;98409.00;12802085;23;20458;-78
2022/01/01 04:32:30;;;;;;;1.80;1.20;;;;;;;11.17;71.54;98415.19;12761086;23;20024;-78
2022/01/01 04:37:50;;;;;;;4.57;1.40;;;;;;;11.19;71.43;98414.59;12781146;23;20016;-78
2022/01/01 04:43:11;;;;;;;2.33;1.50;;;;;;;11.14;71.39;98416.38;12740188;23;20444;-78
2022/01/01 04:48:36;;;;;;;1.65;1.08;;;;;;;11.14;71.15;98410.78;12802149;23;20037;-78
2022/01/01 04:54:00;;;;;;;4.00;1.50;;;;;;;11.10;71.47;98423.72;12761578;23;20021;-78
2022/01/01 04:59:21;;;;;;;2.10;1.00;;;;;;;11.10;71.35;98432.09;12802126;23;20021;-78
2022/01/01 05:04:42;;;;;;;2.47;1.10;;;;;;;11.10;71.29;98430.03;12776207;23;20079;-78
2022/01/01 05:10:03;;;;;;;2.10;1.20;;;;;;;11.10;71.27;98427.25;12754007;23;20013;-78
2022/01/01 05:15:24;;;;;;;2.85;1.20;;;;;;;11.13;71.11;98411.38;12780519;23;20096;-78
2022/01/01 05:20:45;;;;;;;3.45;1.42;;;;;;;11.10;70.96;98407.69;12801205;23;20040;-78
2022/01/01 05:26:06;;;;;;;4.40;1.30;;;;;;;11.12;71.15;98427.41;12781160;23;20344;-78
2022/01/01 05:31:28;;;;;;;4.50;1.20;;;;;;;11.13;71.10;98434.47;12739289;23;20070;-79
2022/01/01 05:36:48;;;;;;;4.53;1.30;;;;;;;11.15;71.05;98437.41;12758958;23;20017;-79
2022/01/01 05:42:13;;;;;;;2.15;0.88;;;;;;;11.17;71.22;98445.19;12801354;23;20017;-79
2022/01/01 05:47:33;;;;;;;1.58;1.10;;;;;;;11.20;71.00;98446.84;12779580;23;20017;-78
2022/01/01 05:52:54;;;;;;;2.95;1.30;;;;;;;11.19;70.74;98442.53;12799859;23;20017;-79
2022/01/01 05:58:15;;;;;;;2.53;1.23;;;;;;;11.18;71.07;98460.63;12775894;23;20016;-79
2022/01/01 06:03:36;;;;;;;3.72;1.20;;;;;;;11.16;70.76;98454.91;12756121;23;20028;-78
2022/01/01 06:08:57;;;;;;;2.25;1.55;;;;;;;11.07;70.97;98456.34;12755388;23;20351;-79
2022/01/01 06:14:18;;;;;;;2.88;1.38;;;;;;;11.01;70.96;98466.31;12751656;23;20027;-79
2022/01/01 06:19:39;;;;;;;1.75;1.10;;;;;;;11.02;71.03;98470.59;12736347;23;20013;-79
2022/01/01 06:24:59;;;;;;;2.63;1.40;;;;;;;10.98;71.13;98484.97;12776464;23;20017;-78
2022/01/01 06:30:20;;;;;;;2.70;1.45;;;;;;;11.00;71.09;98482.34;12756545;23;20021;-79
2022/01/01 06:35:42;;;;;;;3.83;1.40;;;;;;;11.04;71.09;98493.81;12736468;23;20047;-79
2022/01/01 06:41:03;;;;;;;2.80;1.35;;;;;;;11.03;70.92;98500.72;12760353;23;20013;-78
2022/01/01 06:46:24;;;;;;;2.35;1.20;;;;;;;11.01;71.07;98505.44;12734995;23;20103;-79
2022/01/01 06:51:45;;;;;;;3.00;1.80;;;;;;;11.01;70.96;98500.59;12758379;23;20013;-79
2022/01/01 06:57:05;;;;;;;1.52;1.13;;;;;;;11.03;71.04;98500.72;12738503;23;20020;-79
2022/01/01 07:02:26;;;;;;;2.80;1.20;;;;;;;11.05;70.99;98497.34;12799352;23;20044;-78
2022/01/01 07:07:47;;;;;;;2.50;1.17;;;;;;;11.08;71.02;98504.56;12762083;23;20023;-79
2022/01/01 07:13:07;;;;;;;2.42;1.20;;;;;;;11.04;70.83;98499.41;12759470;23;20071;-78
2022/01/01 07:18:28;;;;;;;2.58;1.40;;;;;;;11.02;70.78;98507.63;12757995;23;20021;-79
2022/01/01 07:23:49;;;;;;;4.10;1.75;;;;;;;11.02;71.10;98502.06;12798625;23;20024;-79
2022/01/01 07:29:09;;;;;;;3.83;1.88;;;;;;;11.03;70.94;98514.69;12779179;23;20017;-79
2022/01/01 07:34:30;;;;;;;2.28;1.52;;;;;;;11.05;71.06;98520.44;12798741;23;20017;-79
2022/01/01 07:39:51;;;;;;;2.60;1.75;;;;;;;11.10;71.07;98536.22;12799618;23;20013;-79
2022/01/01 07:45:12;;;;;;;4.80;1.65;;;;;;;11.22;70.72;98546.84;12778580;23;20013;-79
2022/01/01 07:50:33;;;;;;;1.60;1.08;;;;;;;11.39;70.45;98547.53;12738316;23;20023;-78
2022/01/01 07:55:54;;;;;;;6.00;2.80;;;;;;;11.55;70.09;98556.41;12778170;23;20553;-78
2022/01/01 08:01:15;;;;;;;2.45;1.50;;;;;;;11.84;69.44;98564.19;12779080;23;20020;-78
2022/01/01 08:06:36;;;;;;;2.40;1.40;;;;;;;12.00;69.22;98554.22;12759448;23;20021;-79
2022/01/01 08:11:57;;;;;;;1.98;1.10;;;;;;;12.09;69.17;98559.09;12765698;23;20340;-78
2022/01/01 08:17:18;;;;;;;2.30;1.40;;;;;;;12.06;68.75;98571.44;12781523;23;20448;-78
2022/01/01 08:22:42;;;;;;;;;;;;;;;11.87;69.02;98577.00;12779263;23;20374;-78
2022/01/01 08:28:03;;;;;;;3.22;1.50;;;;;;;11.86;69.31;98572.72;12782093;23;19986;-77
2022/01/01 08:33:24;;;;;;;4.35;1.30;;;;;;;11.91;69.19;98558.47;12761797;23;20032;-77
2022/01/01 08:38:45;;;;;;;3.25;1.30;;;;;;;11.97;69.09;98549.81;12781973;23;20024;-78
2022/01/01 08:44:06;;;;;;;2.10;1.40;;;;;;;12.04;69.04;98555.25;12761141;23;20013;-78
2022/01/01 08:49:27;;;;;;;2.83;1.50;;;;;;;12.15;68.96;98556.72;12781310;23;20380;-78
2022/01/01 08:54:47;;;;;;;3.35;1.40;;;;;;;12.25;68.68;98567.94;12783535;23;20020;-77
2022/01/01 09:00:11;;;;;;;3.28;1.60;;;;;;;12.38;68.43;98580.78;12764794;23;20734;-77
2022/01/01 09:05:32;;;;;;;3.40;1.48;;;;;;;12.61;67.92;98583.88;12774765;23;20040;-77
2022/01/01 09:11:00;;;;;;;2.60;1.50;;;;;;;12.66;67.16;98594.06;12785180;23;20017;-77
2022/01/01 09:16:28;;;;;;;2.00;1.33;;;;;;;12.66;67.42;98598.94;12764168;23;20018;-80
2022/01/01 09:21:49;;;;;;;4.18;1.45;;;;;;;12.76;67.09;98596.88;12783947;23;20017;-78
2022/01/01 09:27:10;;;;;;;2.85;1.38;;;;;;;13.04;66.77;98601.72;12782170;23;20013;-78
2022/01/01 09:32:30;;;;;;;3.75;1.27;;;;;;;13.44;66.11;98598.25;12761881;23;20028;-77
2022/01/01 09:37:51;;;;;;;2.72;1.25;;;;;;;13.82;64.76;98619.09;12761268;23;20017;-77
2022/01/01 09:43:13;;;;;;;2.85;1.63;;;;;;;14.04;64.67;98603.75;12762643;23;20017;-77
2022/01/01 09:48:34;;;;;;;2.75;1.40;;;;;;;14.18;63.95;98603.97;12781075;23;20379;-78
2022/01/01 09:53:55;;;;;;;2.75;1.33;;;;;;;14.05;63.55;98612.91;12760446;23;20016;-77
2022/01/01 09:59:16;;;;;;;2.60;1.48;;;;;;;13.88;63.62;98629.97;12760629;23;20021;-77
2022/01/01 10:04:55;;;;;;;3.53;1.35;;;;;;;13.66;63.24;98635.53;12777061;23;20344;-77
2022/01/01 10:10:18;;;;;;;2.47;1.38;;;;;;;13.50;63.60;98623.16;12754003;23;20013;-78
2022/01/01 10:15:38;;;;;;;2.83;1.80;;;;;;;13.69;63.49;98630.78;12760733;23;20016;-78
2022/01/01 10:21:11;;;;;;;3.65;1.70;;;;;;;13.90;63.02;98633.69;12737920;23;20021;-77
2022/01/01 10:32:11;;;;;;;2.67;1.35;;;;;;;14.13;62.06;98635.19;12759734;23;20038;-78
2022/01/01 10:37:32;;;;;;;3.53;1.33;;;;;;;14.31;62.02;98642.03;12757787;23;20068;-78
2022/01/01 10:42:54;;;;;;;3.85;1.95;;;;;;;14.25;61.74;98630.38;12799008;23;20013;-78
2022/01/01 10:53:47;;;;;;;2.70;1.63;;;;;;;14.08;61.54;98634.16;12757418;23;20009;-84
2022/01/01 10:59:09;;;;;;;3.28;1.70;;;;;;;13.98;62.03;98630.66;12766657;23;20112;-78
2022/01/01 11:04:30;;;;;;;3.75;1.75;;;;;;;14.10;62.04;98636.41;12807504;23;20017;-79
2022/01/01 11:09:50;;;;;;;4.53;1.50;;;;;;;14.29;61.87;98633.47;12769833;23;20017;-78
2022/01/01 11:15:11;;;;;;;5.22;2.03;;;;;;;14.47;60.94;98628.34;12788712;23;20029;-79
2022/01/01 11:20:36;;;;;;;3.63;1.70;;;;;;;14.78;60.96;98623.41;12770110;23;20020;-78
2022/01/01 11:25:57;;;;;;;3.10;1.73;;;;;;;15.31;58.88;98618.31;12732170;23;20024;-80
2022/01/01 11:31:18;;;;;;;3.63;1.85;;;;;;;15.27;59.13;98620.16;12803641;23;20105;-82
2022/01/01 11:36:39;;;;;;;3.92;2.00;;;;;;;14.95;59.21;98627.97;12803589;23;20027;-80
2022/01/01 11:42:13;;;;;;;5.40;1.65;;;;;;;14.70;59.46;98619.34;12809224;23;20057;-80
2022/01/01 11:47:34;;;;;;;;;;;;;;;14.43;59.62;98614.03;12807729;23;20073;-83
2022/01/01 11:52:55;;;;;;;1.90;1.40;;;;;;;14.24;60.18;98617.69;12806708;23;19936;-81
2022/01/01 11:58:16;;;;;;;5.50;1.80;;;;;;;14.10;60.23;98613.94;12825926;23;20048;-82
2022/01/01 12:03:58;;;;;;;3.63;1.50;;;;;;;13.92;60.54;98633.81;12828067;23;20073;-83
2022/01/01 12:09:18;;;;;;;4.00;2.00;;;;;;;13.79;60.47;98634.28;12743333;23;20024;-83
2022/01/01 12:14:39;;;;;;;3.95;2.28;;;;;;;13.70;60.48;98633.03;12723394;23;20116;-83
2022/01/01 12:20:13;;;;;;;4.75;1.70;;;;;;;13.82;60.63;98635.19;12763135;23;20069;-81
2022/01/01 12:25:34;;;;;;;3.55;1.70;;;;;;;13.92;60.38;98631.00;12722167;23;20017;-81
2022/01/01 12:31:08;;;;;;;3.78;1.70;;;;;;;14.01;60.49;98627.41;12720474;23;20068;-84
2022/01/01 12:43:10;;;;;;;5.13;1.77;;;;;;;13.95;60.16;98621.38;12694212;23;20069;-85
2022/01/01 12:48:45;;;;;;;3.00;1.55;;;;;;;13.78;60.50;98626.47;12804984;23;20021;31
2022/01/01 12:54:08;;;;;;;3.72;1.67;;;;;;;13.71;60.47;98614.13;12592607;23;20050;-80
2022/01/01 12:59:30;;;;;;;4.67;1.70;;;;;;;13.88;60.44;98625.09;12593578;23;20038;-83
2022/01/01 13:04:52;;;;;;;2.63;1.38;;;;;;;13.83;60.18;98617.75;12582761;23;20009;-80
2022/01/01 13:10:13;;;;;;;3.10;1.48;;;;;;;13.68;60.18;98623.72;12606530;23;20022;-80
2022/01/01 13:15:35;;;;;;;3.45;1.90;;;;;;;13.59;60.36;98639.22;12670705;23;20097;-80
2022/01/01 13:20:56;;;;;;;3.47;1.70;;;;;;;13.66;60.34;98638.34;12662480;23;20006;-81
2022/01/01 13:26:17;;;;;;;4.32;1.33;;;;;;;13.79;59.27;98650.41;12670786;23;20030;-80
2022/01/01 13:31:38;;;;;;;3.38;1.20;;;;;;;13.84;59.23;98647.28;12647521;23;20074;-81
2022/01/01 13:37:07;;;;;;;4.88;1.33;;;;;;;13.82;58.84;98647.16;12666919;23;20014;-79
2022/01/01 13:42:28;;;;;;;3.78;1.58;;;;;;;13.77;58.07;98659.41;12622618;23;20093;-77
2022/01/01 13:47:49;;;;;;;4.18;1.35;;;;;;;13.75;58.53;98667.69;12639936;23;20435;-78
2022/01/01 13:53:10;;;;;;;3.38;1.42;;;;;;;13.69;58.54;98661.66;12618409;23;20069;-77
2022/01/01 13:58:41;;;;;;;4.43;1.80;;;;;;;13.68;57.59;98662.97;12616861;23;20461;-77
2022/01/01 14:04:03;;;;;;;4.28;1.80;;;;;;;13.75;58.12;98673.31;12617854;23;20027;-78
2022/01/01 14:09:24;;;;;;;6.60;1.83;;;;;;;13.79;58.11;98676.38;12616374;23;20018;-78
2022/01/01 14:14:45;;;;;;;3.38;1.58;;;;;;;13.87;57.39;98687.44;12633475;23;20509;-78
2022/01/01 14:20:44;;;;;;;6.25;2.20;;;;;;;13.88;57.62;98700.13;12634650;23;20021;-78
2022/01/01 14:26:06;;;;;;;4.00;1.70;;;;;;;13.82;57.84;98703.28;12587327;23;20026;-77
2022/01/01 14:31:27;;;;;;;6.05;1.95;;;;;;;13.71;57.76;98701.09;12635158;23;20025;-77
2022/01/01 14:36:49;;;;;;;5.40;2.30;;;;;;;13.47;57.74;98694.47;12635378;23;20085;-77
2022/01/01 14:42:11;;;;;;;6.63;2.10;;;;;;;13.29;58.00;98690.38;12635274;23;20021;-77
2022/01/01 14:47:32;;;;;;;6.40;2.60;;;;;;;13.16;58.05;98683.88;12634469;23;20041;-77
2022/01/01 14:53:03;;;;;;;5.07;1.87;;;;;;;12.92;58.18;98681.34;12574241;23;1085551;-77
2022/01/01 14:58:30;;;;;;;4.90;1.98;;;;;;;12.71;58.76;98679.88;12615735;23;20022;-77
2022/01/01 15:03:51;;;;;;;4.65;2.00;;;;;;;12.66;59.02;98689.31;12635529;23;20018;-77
2022/01/01 15:09:12;;;;;;;6.63;1.90;;;;;;;12.61;59.01;98690.31;12636312;23;20021;-77
2022/01/01 15:14:33;;;;;;;4.75;2.22;;;;;;;12.53;59.22;98695.31;12636730;23;20014;-77
2022/01/01 15:19:53;;;;;;;5.00;2.75;;;;;;;12.44;59.46;98701.63;12637432;23;20019;-78
2022/01/01 15:25:15;;;;;;;5.78;2.70;;;;;;;12.44;59.41;98707.22;12638745;23;20018;-77
2022/01/01 15:30:46;;;;;;;3.50;2.20;;;;;;;12.44;59.60;98701.63;12630858;23;20042;-79
2022/01/01 15:36:15;;;;;;;5.32;3.05;;;;;;;12.41;59.53;98686.00;12667437;23;20025;-81
2022/01/01 15:47:01;;;;;;;6.47;2.60;;;;;;;12.26;60.13;98687.00;12628925;23;20014;-78
2022/01/01 15:52:22;;;;;;;3.92;2.10;;;;;;;12.26;60.11;98687.75;12634120;23;20025;-79
2022/01/01 15:57:53;;;;;;;5.68;2.28;;;;;;;12.27;60.12;98688.47;12646421;23;20040;-78
2022/01/01 16:03:44;;;;;;;4.32;2.28;;;;;;;12.28;60.07;98701.88;12661637;23;20029;-84
2022/01/01 16:09:06;;;;;;;4.78;2.55;;;;;;;12.28;59.99;98703.94;12673537;23;20065;-83
2022/01/01 16:14:36;;;;;;;4.50;2.60;;;;;;;12.25;60.15;98700.25;12688252;23;20014;-82
2022/01/01 16:19:58;;;;;;;7.95;2.70;;;;;;;12.23;60.51;98690.97;12655971;23;20021;-77
2022/01/01 16:25:20;;;;;;;4.88;2.72;;;;;;;12.21;60.38;98685.22;12623559;23;20029;-77
2022/01/01 16:30:41;;;;;;;7.45;3.25;;;;;;;12.18;60.70;98687.13;12602853;23;20014;-76
2022/01/01 16:36:02;;;;;;;5.80;2.90;;;;;;;12.11;60.66;98692.84;12620990;23;20070;-76
2022/01/01 16:41:41;;;;;;;6.22;3.70;;;;;;;12.01;61.05;98692.78;12622391;23;20026;-76
2022/01/01 16:47:09;;;;;;;8.45;3.90;;;;;;;11.93;61.68;98692.16;12619971;23;20018;-76
2022/01/01 16:52:55;;;;;;;10.35;4.28;;;;;;;11.90;61.83;98696.13;12619167;23;20015;-76
2022/01/01 16:58:16;;;;;;;8.68;3.90;;;;;;;11.90;61.76;98682.88;12619157;23;20022;-76
2022/01/01 17:03:46;;;;;;;9.10;4.05;;;;;;;11.90;61.90;98680.09;12638385;23;20541;-75
2022/01/01 17:09:07;;;;;;;7.60;3.42;;;;;;;11.84;62.05;98685.22;12637894;23;20019;-76
2022/01/01 17:14:28;;;;;;;5.40;3.60;;;;;;;11.76;62.29;98682.47;12639513;23;20029;-77
2022/01/01 17:20:15;;;;;;;6.75;3.40;;;;;;;11.73;62.32;98680.84;12639325;23;20018;-76
2022/01/01 17:25:36;;;;;;;6.55;3.40;;;;;;;11.71;62.47;98674.38;12618711;23;20074;-76
2022/01/01 17:30:56;;;;;;;5.05;2.97;;;;;;;11.68;62.56;98686.72;12639127;23;20014;-77
2022/01/01 17:36:24;;;;;;;6.85;2.83;;;;;;;11.67;62.83;98685.97;12639202;23;20029;-76
2022/01/01 17:42:04;;;;;;;6.78;2.90;;;;;;;11.68;62.95;98692.34;12638063;23;20025;-75
2022/01/01 17:47:26;;;;;;;4.88;2.70;;;;;;;11.69;62.55;98688.22;12616892;23;20018;-77
2022/01/01 17:52:48;;;;;;;5.85;2.95;;;;;;;11.65;62.77;98699.06;12652755;23;20019;-81
2022/01/01 17:58:18;;;;;;;6.00;3.47;;;;;;;11.61;62.67;98698.75;12644461;23;20331;-77
2022/01/01 18:03:40;;;;;;;5.47;2.92;;;;;;;11.47;63.06;98695.56;12641818;23;20041;-79
2022/01/01 18:09:01;;;;;;;7.80;4.55;;;;;;;11.31;62.71;98697.09;12644959;23;20022;-79
2022/01/01 18:14:40;;;;;;;7.30;4.38;;;;;;;11.12;63.38;98689.31;12649713;23;20354;-79
2022/01/01 18:20:06;;;;;;;8.18;3.47;;;;;;;10.95;63.68;98681.66;12657838;23;20021;-79
2022/01/01 18:25:32;;;;;;;5.80;3.38;;;;;;;10.78;63.99;98690.03;12627883;23;20027;-78
2022/01/01 18:31:04;;;;;;;7.75;3.28;;;;;;;10.63;64.19;98690.94;12632190;23;20049;-80
2022/01/01 18:36:28;;;;;;;7.32;3.50;;;;;;;10.49;64.22;98693.28;12648260;23;20018;-77
2022/01/01 18:41:49;;;;;;;7.28;3.92;;;;;;;10.35;64.30;98677.44;12617716;23;20330;-79
2022/01/01 18:47:10;;;;;;;7.30;4.82;;;;;;;10.22;64.88;98675.66;12672405;23;20011;-82
2022/01/01 18:52:43;;;;;;;8.57;4.88;;;;;;;10.13;64.87;98684.63;12657580;23;20023;-78
2022/01/01 18:58:05;;;;;;;9.75;5.20;;;;;;;10.06;65.36;98677.09;12597804;23;20026;-78
2022/01/01 19:03:30;;;;;;;10.45;5.72;;;;;;;9.93;65.39;98673.25;12636609;23;20064;-76
2022/01/01 19:08:55;;;;;;;8.77;5.30;;;;;;;9.85;65.78;98678.16;12647788;23;20014;-83
2022/01/01 19:14:15;;;;;;;10.50;4.80;;;;;;;9.73;65.66;98674.31;12643826;23;20031;-80
2022/01/01 19:19:37;;;;;;;8.43;4.13;;;;;;;9.65;65.77;98676.41;12682796;23;20018;-80
2022/01/01 19:24:58;;;;;;;8.98;4.10;;;;;;;9.60;65.79;98683.69;12630979;23;20002;-85
2022/01/01 19:30:21;;;;;;;9.25;5.20;;;;;;;9.55;65.96;98672.75;12641376;23;20015;-82
2022/01/01 19:35:44;;;;;;;9.15;5.25;;;;;;;9.55;66.29;98656.78;12610481;23;19999;-84
2022/01/01 19:41:38;;;;;;;7.63;4.95;;;;;;;9.51;66.16;98672.41;12635939;23;20077;-79
2022/01/01 19:47:14;;;;;;;9.45;5.80;;;;;;;9.49;66.61;98670.19;12623388;23;20015;-78
2022/01/01 19:52:36;;;;;;;11.65;5.70;;;;;;;9.48;66.63;98670.78;12600161;23;20022;-78
2022/01/01 19:57:56;;;;;;;10.13;5.90;;;;;;;9.41;66.49;98652.78;12623280;23;20023;-79
2022/01/01 20:03:18;;;;;;;12.10;6.55;;;;;;;9.35;66.66;98650.19;12607627;23;20072;-80
2022/01/01 20:08:38;;;;;;;9.88;5.82;;;;;;;9.31;66.96;98655.44;12638149;23;20022;-78
2022/01/01 20:13:59;;;;;;;12.95;7.03;;;;;;;9.30;66.80;98651.16;12618575;23;20339;-78
2022/01/01 20:19:20;;;;;;;11.00;5.63;;;;;;;9.26;66.89;98661.94;12636972;23;20047;-80
2022/01/01 20:24:40;;;;;;;10.25;5.68;;;;;;;9.24;67.47;98664.56;12692333;23;20033;-80
2022/01/01 20:30:03;;;;;;;11.68;5.78;;;;;;;9.19;67.26;98668.31;12673282;23;20098;-80
2022/01/01 20:35:24;;;;;;;10.20;6.47;;;;;;;9.17;67.81;98671.66;12672214;23;20026;-80
2022/01/01 20:40:47;;;;;;;11.45;6.05;;;;;;;9.16;67.69;98672.94;12659611;23;20015;-78
2022/01/01 20:46:08;;;;;;;11.15;6.22;;;;;;;9.11;67.71;98670.38;12640428;23;20019;-78
2022/01/01 20:51:29;;;;;;;11.43;6.07;;;;;;;9.07;67.67;98664.44;12619650;23;20014;-78
2022/01/01 20:56:50;;;;;;;8.93;5.70;;;;;;;9.00;67.54;98656.88;12658981;23;20022;-77
2022/01/01 21:02:19;;;;;;;11.40;5.72;;;;;;;8.94;67.78;98656.31;12641604;23;20434;-79
2022/01/01 21:07:41;;;;;;;10.48;5.43;;;;;;;8.89;68.28;98658.75;12635123;23;20042;-79
2022/01/01 21:13:02;;;;;;;9.93;5.28;;;;;;;8.88;68.72;98648.94;12622268;23;20073;-77
2022/01/01 21:18:23;;;;;;;10.02;5.30;;;;;;;8.89;68.64;98644.09;12706527;23;20070;-85
2022/01/01 21:30:22;;;;;;;11.07;6.15;;;;;;;8.87;68.92;98636.28;12851621;23;20025;-80
2022/01/01 21:35:44;;;;;;;11.40;6.57;;;;;;;8.80;69.43;98631.50;12823329;23;20021;-79
2022/01/01 21:41:05;;;;;;;10.57;5.88;;;;;;;8.73;68.89;98615.56;12781771;23;20443;-79
2022/01/01 21:46:26;;;;;;;11.93;6.13;;;;;;;8.67;69.06;98626.16;12841801;23;20024;-79
2022/01/01 21:51:47;;;;;;;10.20;6.13;;;;;;;8.61;69.20;98625.63;12821584;23;20021;-79
2022/01/01 21:57:08;;;;;;;12.57;6.05;;;;;;;8.56;69.30;98621.72;12804078;23;20336;-79
2022/01/01 22:02:29;;;;;;;9.48;5.60;;;;;;;8.51;69.41;98617.13;12822635;23;20067;-79
2022/01/01 22:07:53;;;;;;;8.80;5.68;;;;;;;8.47;69.39;98605.59;12824624;23;20020;-78
2022/01/01 22:13:14;;;;;;;10.00;5.25;;;;;;;8.45;69.82;98607.47;12818873;23;20042;-78
2022/01/01 22:18:35;;;;;;;9.68;5.30;;;;;;;8.40;69.68;98606.38;12799209;23;20435;-79
2022/01/01 22:23:55;;;;;;;7.90;4.53;;;;;;;8.44;69.78;98606.00;12840248;23;20013;-79
2022/01/01 22:29:16;;;;;;;11.02;5.15;;;;;;;8.36;69.71;98599.72;12819789;23;20024;-79
2022/01/01 22:34:37;;;;;;;8.52;5.03;;;;;;;8.29;70.15;98599.13;12842398;23;20016;-79
2022/01/01 22:39:58;;;;;;;7.93;4.47;;;;;;;8.32;70.24;98578.56;12841365;23;20020;-79
2022/01/01 22:45:19;;;;;;;10.05;4.75;;;;;;;8.33;70.19;98568.91;12841075;23;20023;-79
2022/01/01 22:50:39;;;;;;;9.30;5.35;;;;;;;8.31;69.83;98565.94;12841196;23;20013;-79
2022/01/01 22:56:00;;;;;;;9.65;5.03;;;;;;;8.28;70.11;98561.47;12840867;23;20012;-79
2022/01/01 23:01:27;;;;;;;9.85;5.10;;;;;;;8.22;70.33;98541.50;12812662;23;20017;-79
2022/01/01 23:06:49;;;;;;;9.00;4.43;;;;;;;8.19;70.23;98537.03;12696651;23;20013;-78
2022/01/01 23:12:10;;;;;;;7.40;4.45;;;;;;;8.17;70.58;98547.97;12697674;23;20022;-78
2022/01/01 23:17:40;;;;;;;9.50;4.55;;;;;;;8.16;70.33;98542.97;12737385;23;20452;-78
2022/01/01 23:23:01;;;;;;;9.60;4.55;;;;;;;8.14;70.40;98537.97;12680735;23;20017;-79
2022/01/01 23:28:23;;;;;;;7.28;4.43;;;;;;;8.08;70.29;98537.44;12737974;23;20428;-79
2022/01/01 23:33:43;;;;;;;9.75;5.10;;;;;;;8.08;70.74;98537.44;12717060;23;20017;-79
2022/01/01 23:39:05;;;;;;;7.60;4.38;;;;;;;8.08;70.71;98531.88;12676787;23;20474;-79
2022/01/01 23:44:28;;;;;;;6.53;4.22;;;;;;;8.03;70.75;98530.78;12697812;23;20024;-78
2022/01/01 23:49:50;;;;;;;10.07;4.93;;;;;;;7.93;70.65;98529.88;12717870;23;20419;-79
2022/01/01 23:55:11;;;;;;;7.78;4.95;;;;;;;7.89;70.68;98521.16;12697914;23;20021;-78
